sim
Sign-in with your pilot id or email,
or register
Callsign
Passwort

Schedule Details

Flight Number: OEO4537
Departure: Cologne Bonn Airport (EDDK) at 13:10
Arrival: Munich Airport (EDDM) at 14:25

Weather Information
Getting current METAR information for EDDK 201550Z 36004KT 310V020 CAVOK 25/08 Q1015 NOSIG
Getting current METAR information for EDDM 201550Z 04005KT CAVOK 21/10 Q1015 NOSIG

Schedule Frequency

Route Map